Montpelier, Virginia
Current Conditions -  °F | °C
As of 7:15 AM on Tuesday 27 Jan 2015 (Local Time) from K7W4 Reporting Station
Overcast Overcast  
Wind Chill: 21°   Ceiling: 1200
Heat Index: 29°   Visibility: 1.7mi
Dew Point: 26°   Wind: 8mph
Humidity: 89%   Direction: 360°N
Pressure: 29.78"   Gusts: NA
Location:  37.82°N, 77.68°W
Report Text: K7W4 271215Z AUTO 36007KT 320V020 1 3/4SM BKN012 OVC022 M02/M03 A2978 RMK AO1 T10191035
Loading
Personal Weather Stations






























Interactive Weather Map New forecast layout! Learn more

10-Day Weather Forecast

Advertisements
Track Severe Weather on mobile